sensor_id;sensor_type;location;lat;lon;timestamp;P1;durP1;ratioP1;P2;durP2;ratioP2
25731;SDS011;13585;50.864;4.406;2023-02-28T00:00:06;3.63;;;2.13;;
25731;SDS011;13585;50.864;4.406;2023-02-28T00:02:36;4.45;;;2.13;;
25731;SDS011;13585;50.864;4.406;2023-02-28T00:05:02;3.42;;;2.08;;
25731;SDS011;13585;50.864;4.406;2023-02-28T00:07:30;3.35;;;2.33;;
25731;SDS011;13585;50.864;4.406;2023-02-28T00:09:56;2.92;;;2.20;;
25731;SDS011;13585;50.864;4.406;2023-02-28T00:12:22;3.25;;;2.00;;
25731;SDS011;13585;50.864;4.406;2023-02-28T00:14:47;3.22;;;1.90;;
25731;SDS011;13585;50.864;4.406;2023-02-28T00:17:13;3.75;;;2.10;;
25731;SDS011;13585;50.864;4.406;2023-02-28T00:19:39;3.20;;;2.25;;
25731;SDS011;13585;50.864;4.406;2023-02-28T00:22:05;4.53;;;2.38;;
25731;SDS011;13585;50.864;4.406;2023-02-28T00:24:30;3.38;;;2.30;;
25731;SDS011;13585;50.864;4.406;2023-02-28T00:26:56;3.50;;;2.50;;
25731;SDS011;13585;50.864;4.406;2023-02-28T00:29:22;3.08;;;2.30;;
25731;SDS011;13585;50.864;4.406;2023-02-28T00:31:48;3.20;;;2.38;;
25731;SDS011;13585;50.864;4.406;2023-02-28T00:34:13;3.42;;;2.13;;
25731;SDS011;13585;50.864;4.406;2023-02-28T00:36:39;5.25;;;2.50;;
25731;SDS011;13585;50.864;4.406;2023-02-28T00:39:08;4.15;;;2.45;;
25731;SDS011;13585;50.864;4.406;2023-02-28T00:41:34;3.20;;;2.15;;
25731;SDS011;13585;50.864;4.406;2023-02-28T00:43:59;4.05;;;2.30;;
25731;SDS011;13585;50.864;4.406;2023-02-28T00:46:25;4.32;;;2.72;;
25731;SDS011;13585;50.864;4.406;2023-02-28T00:48:50;4.07;;;2.58;;
25731;SDS011;13585;50.864;4.406;2023-02-28T00:51:16;3.42;;;2.38;;
25731;SDS011;13585;50.864;4.406;2023-02-28T00:53:42;3.72;;;2.50;;
25731;SDS011;13585;50.864;4.406;2023-02-28T00:56:07;3.45;;;2.42;;
25731;SDS011;13585;50.864;4.406;2023-02-28T00:58:33;4.75;;;2.60;;
25731;SDS011;13585;50.864;4.406;2023-02-28T01:00:58;4.68;;;3.17;;
25731;SDS011;13585;50.864;4.406;2023-02-28T01:03:24;4.25;;;2.47;;
25731;SDS011;13585;50.864;4.406;2023-02-28T01:05:50;3.90;;;2.55;;
25731;SDS011;13585;50.864;4.406;2023-02-28T01:08:18;3.80;;;2.67;;
25731;SDS011;13585;50.864;4.406;2023-02-28T01:10:44;4.15;;;2.50;;
25731;SDS011;13585;50.864;4.406;2023-02-28T01:13:10;6.18;;;2.65;;
25731;SDS011;13585;50.864;4.406;2023-02-28T01:15:36;3.92;;;2.70;;
25731;SDS011;13585;50.864;4.406;2023-02-28T01:18:02;4.88;;;2.60;;
25731;SDS011;13585;50.864;4.406;2023-02-28T01:20:28;5.22;;;2.92;;
25731;SDS011;13585;50.864;4.406;2023-02-28T01:22:54;4.95;;;2.97;;
25731;SDS011;13585;50.864;4.406;2023-02-28T01:25:19;4.00;;;2.53;;
25731;SDS011;13585;50.864;4.406;2023-02-28T01:27:45;3.28;;;2.70;;
25731;SDS011;13585;50.864;4.406;2023-02-28T01:30:11;6.07;;;3.33;;
25731;SDS011;13585;50.864;4.406;2023-02-28T01:32:36;4.63;;;2.90;;
25731;SDS011;13585;50.864;4.406;2023-02-28T01:35:02;3.88;;;2.40;;
25731;SDS011;13585;50.864;4.406;2023-02-28T01:37:28;4.45;;;2.97;;
25731;SDS011;13585;50.864;4.406;2023-02-28T01:39:53;5.13;;;3.35;;
25731;SDS011;13585;50.864;4.406;2023-02-28T01:42:19;5.55;;;3.08;;
25731;SDS011;13585;50.864;4.406;2023-02-28T01:45:06;5.35;;;3.53;;
25731;SDS011;13585;50.864;4.406;2023-02-28T01:47:40;4.78;;;2.95;;
25731;SDS011;13585;50.864;4.406;2023-02-28T01:50:09;4.13;;;2.78;;
25731;SDS011;13585;50.864;4.406;2023-02-28T01:52:42;3.15;;;2.53;;
25731;SDS011;13585;50.864;4.406;2023-02-28T01:55:10;5.60;;;3.13;;
25731;SDS011;13585;50.864;4.406;2023-02-28T01:57:38;4.32;;;2.83;;
25731;SDS011;13585;50.864;4.406;2023-02-28T02:00:25;4.13;;;2.83;;
25731;SDS011;13585;50.864;4.406;2023-02-28T02:03:04;4.82;;;2.78;;
25731;SDS011;13585;50.864;4.406;2023-02-28T02:05:34;4.82;;;2.60;;
25731;SDS011;13585;50.864;4.406;2023-02-28T02:08:04;4.65;;;2.80;;
25731;SDS011;13585;50.864;4.406;2023-02-28T02:10:36;7.15;;;2.95;;
25731;SDS011;13585;50.864;4.406;2023-02-28T02:18:47;4.78;;;2.97;;
25731;SDS011;13585;50.864;4.406;2023-02-28T02:41:14;3.83;;;2.40;;
25731;SDS011;13585;50.864;4.406;2023-02-28T02:43:51;3.95;;;2.42;;
25731;SDS011;13585;50.864;4.406;2023-02-28T02:46:23;4.90;;;2.92;;
25731;SDS011;13585;50.864;4.406;2023-02-28T02:48:50;3.90;;;2.58;;
25731;SDS011;13585;50.864;4.406;2023-02-28T02:51:20;3.92;;;2.60;;
25731;SDS011;13585;50.864;4.406;2023-02-28T02:53:56;4.70;;;2.92;;
25731;SDS011;13585;50.864;4.406;2023-02-28T02:56:44;4.65;;;2.58;;
25731;SDS011;13585;50.864;4.406;2023-02-28T02:59:12;4.30;;;2.90;;
25731;SDS011;13585;50.864;4.406;2023-02-28T03:01:47;3.17;;;2.40;;
25731;SDS011;13585;50.864;4.406;2023-02-28T03:04:24;3.83;;;2.40;;
25731;SDS011;13585;50.864;4.406;2023-02-28T03:06:52;3.58;;;2.50;;
25731;SDS011;13585;50.864;4.406;2023-02-28T03:09:22;3.58;;;2.53;;
25731;SDS011;13585;50.864;4.406;2023-02-28T03:11:49;3.80;;;2.65;;
25731;SDS011;13585;50.864;4.406;2023-02-28T03:20:04;3.53;;;2.40;;
25731;SDS011;13585;50.864;4.406;2023-02-28T03:22:52;4.18;;;2.70;;
25731;SDS011;13585;50.864;4.406;2023-02-28T03:28:30;3.95;;;2.53;;
25731;SDS011;13585;50.864;4.406;2023-02-28T03:33:38;3.40;;;2.60;;
25731;SDS011;13585;50.864;4.406;2023-02-28T03:36:13;3.83;;;2.53;;
25731;SDS011;13585;50.864;4.406;2023-02-28T03:38:45;3.92;;;2.40;;
25731;SDS011;13585;50.864;4.406;2023-02-28T03:41:19;3.47;;;2.40;;
25731;SDS011;13585;50.864;4.406;2023-02-28T03:44:12;3.17;;;2.35;;
25731;SDS011;13585;50.864;4.406;2023-02-28T03:46:42;3.33;;;2.70;;
25731;SDS011;13585;50.864;4.406;2023-02-28T03:49:53;3.42;;;2.63;;
25731;SDS011;13585;50.864;4.406;2023-02-28T03:52:19;4.32;;;2.75;;
25731;SDS011;13585;50.864;4.406;2023-02-28T03:54:51;2.95;;;2.22;;
25731;SDS011;13585;50.864;4.406;2023-02-28T03:57:24;4.68;;;2.80;;
25731;SDS011;13585;50.864;4.406;2023-02-28T04:00:03;4.43;;;2.15;;
25731;SDS011;13585;50.864;4.406;2023-02-28T04:02:37;3.50;;;2.30;;
25731;SDS011;13585;50.864;4.406;2023-02-28T04:05:04;2.58;;;2.30;;
25731;SDS011;13585;50.864;4.406;2023-02-28T04:07:30;3.03;;;2.17;;
25731;SDS011;13585;50.864;4.406;2023-02-28T04:09:56;4.28;;;2.53;;
25731;SDS011;13585;50.864;4.406;2023-02-28T04:12:22;3.67;;;2.50;;
25731;SDS011;13585;50.864;4.406;2023-02-28T04:14:49;3.22;;;2.30;;
25731;SDS011;13585;50.864;4.406;2023-02-28T04:17:15;3.80;;;2.55;;
25731;SDS011;13585;50.864;4.406;2023-02-28T04:19:41;3.13;;;2.10;;
25731;SDS011;13585;50.864;4.406;2023-02-28T04:22:07;2.70;;;2.20;;
25731;SDS011;13585;50.864;4.406;2023-02-28T04:24:34;3.95;;;2.58;;
25731;SDS011;13585;50.864;4.406;2023-02-28T04:27:00;4.30;;;2.58;;
25731;SDS011;13585;50.864;4.406;2023-02-28T04:29:30;3.63;;;2.60;;
25731;SDS011;13585;50.864;4.406;2023-02-28T04:31:58;2.75;;;2.08;;
25731;SDS011;13585;50.864;4.406;2023-02-28T04:34:25;3.00;;;2.22;;
25731;SDS011;13585;50.864;4.406;2023-02-28T04:36:52;3.33;;;2.40;;
25731;SDS011;13585;50.864;4.406;2023-02-28T04:39:21;3.40;;;2.55;;
25731;SDS011;13585;50.864;4.406;2023-02-28T04:41:48;3.47;;;2.08;;
25731;SDS011;13585;50.864;4.406;2023-02-28T04:44:14;4.28;;;2.63;;
25731;SDS011;13585;50.864;4.406;2023-02-28T04:46:40;3.60;;;2.45;;
25731;SDS011;13585;50.864;4.406;2023-02-28T04:49:06;4.22;;;2.60;;
25731;SDS011;13585;50.864;4.406;2023-02-28T04:51:33;3.15;;;2.30;;
25731;SDS011;13585;50.864;4.406;2023-02-28T04:53:59;3.53;;;2.55;;
25731;SDS011;13585;50.864;4.406;2023-02-28T04:56:24;4.32;;;2.55;;
25731;SDS011;13585;50.864;4.406;2023-02-28T04:58:50;2.97;;;2.30;;
25731;SDS011;13585;50.864;4.406;2023-02-28T05:03:49;3.00;;;2.50;;
25731;SDS011;13585;50.864;4.406;2023-02-28T05:06:16;2.95;;;2.40;;
25731;SDS011;13585;50.864;4.406;2023-02-28T05:08:42;3.25;;;2.30;;
25731;SDS011;13585;50.864;4.406;2023-02-28T05:11:21;4.40;;;2.60;;
25731;SDS011;13585;50.864;4.406;2023-02-28T05:13:52;5.22;;;2.50;;
25731;SDS011;13585;50.864;4.406;2023-02-28T05:16:19;3.92;;;2.78;;
25731;SDS011;13585;50.864;4.406;2023-02-28T05:18:45;4.53;;;2.72;;
25731;SDS011;13585;50.864;4.406;2023-02-28T05:21:22;3.85;;;2.67;;
25731;SDS011;13585;50.864;4.406;2023-02-28T05:23:51;3.10;;;2.38;;
25731;SDS011;13585;50.864;4.406;2023-02-28T05:26:18;3.55;;;2.58;;
25731;SDS011;13585;50.864;4.406;2023-02-28T05:28:44;3.85;;;2.70;;
25731;SDS011;13585;50.864;4.406;2023-02-28T05:31:10;3.92;;;2.90;;
25731;SDS011;13585;50.864;4.406;2023-02-28T05:33:36;3.90;;;2.50;;
25731;SDS011;13585;50.864;4.406;2023-02-28T05:36:02;3.60;;;2.28;;
25731;SDS011;13585;50.864;4.406;2023-02-28T05:38:28;5.28;;;2.58;;
25731;SDS011;13585;50.864;4.406;2023-02-28T05:40:54;4.35;;;2.55;;
25731;SDS011;13585;50.864;4.406;2023-02-28T05:43:19;3.53;;;2.40;;
25731;SDS011;13585;50.864;4.406;2023-02-28T05:45:45;3.75;;;2.20;;
25731;SDS011;13585;50.864;4.406;2023-02-28T05:48:11;4.15;;;2.42;;
25731;SDS011;13585;50.864;4.406;2023-02-28T05:50:37;2.83;;;2.20;;
25731;SDS011;13585;50.864;4.406;2023-02-28T05:53:03;3.05;;;2.20;;
25731;SDS011;13585;50.864;4.406;2023-02-28T05:55:29;4.57;;;2.47;;
25731;SDS011;13585;50.864;4.406;2023-02-28T05:57:55;2.88;;;2.03;;
25731;SDS011;13585;50.864;4.406;2023-02-28T06:00:21;3.63;;;2.28;;
25731;SDS011;13585;50.864;4.406;2023-02-28T06:02:47;3.17;;;2.28;;
25731;SDS011;13585;50.864;4.406;2023-02-28T06:05:14;2.55;;;2.30;;
25731;SDS011;13585;50.864;4.406;2023-02-28T06:07:42;2.67;;;2.10;;
25731;SDS011;13585;50.864;4.406;2023-02-28T06:10:09;3.42;;;2.10;;
25731;SDS011;13585;50.864;4.406;2023-02-28T06:12:36;3.63;;;2.25;;
25731;SDS011;13585;50.864;4.406;2023-02-28T06:15:02;3.25;;;2.30;;
25731;SDS011;13585;50.864;4.406;2023-02-28T06:17:28;3.28;;;2.45;;
25731;SDS011;13585;50.864;4.406;2023-02-28T06:19:54;3.25;;;2.40;;
25731;SDS011;13585;50.864;4.406;2023-02-28T06:22:19;3.60;;;2.33;;
25731;SDS011;13585;50.864;4.406;2023-02-28T06:24:45;3.90;;;2.63;;
25731;SDS011;13585;50.864;4.406;2023-02-28T06:27:11;3.45;;;2.20;;
25731;SDS011;13585;50.864;4.406;2023-02-28T06:29:36;3.38;;;2.10;;
25731;SDS011;13585;50.864;4.406;2023-02-28T06:32:04;3.00;;;2.33;;
25731;SDS011;13585;50.864;4.406;2023-02-28T06:34:30;4.05;;;2.13;;
25731;SDS011;13585;50.864;4.406;2023-02-28T06:36:56;3.45;;;2.00;;
25731;SDS011;13585;50.864;4.406;2023-02-28T06:39:27;4.25;;;2.20;;
25731;SDS011;13585;50.864;4.406;2023-02-28T06:41:56;4.38;;;2.25;;
25731;SDS011;13585;50.864;4.406;2023-02-28T06:44:22;2.80;;;2.00;;
25731;SDS011;13585;50.864;4.406;2023-02-28T06:46:48;2.95;;;2.08;;
25731;SDS011;13585;50.864;4.406;2023-02-28T06:49:14;4.15;;;2.10;;
25731;SDS011;13585;50.864;4.406;2023-02-28T06:51:41;3.85;;;2.38;;
25731;SDS011;13585;50.864;4.406;2023-02-28T06:54:11;5.53;;;2.38;;
25731;SDS011;13585;50.864;4.406;2023-02-28T06:56:38;4.55;;;2.20;;
25731;SDS011;13585;50.864;4.406;2023-02-28T06:59:03;3.38;;;2.42;;
25731;SDS011;13585;50.864;4.406;2023-02-28T07:01:29;2.97;;;1.90;;
25731;SDS011;13585;50.864;4.406;2023-02-28T07:03:56;5.38;;;2.47;;
25731;SDS011;13585;50.864;4.406;2023-02-28T07:06:23;3.70;;;2.10;;
25731;SDS011;13585;50.864;4.406;2023-02-28T07:08:49;3.13;;;2.00;;
25731;SDS011;13585;50.864;4.406;2023-02-28T07:11:17;3.17;;;2.20;;
25731;SDS011;13585;50.864;4.406;2023-02-28T07:13:44;5.40;;;2.60;;
25731;SDS011;13585;50.864;4.406;2023-02-28T07:16:10;3.30;;;2.17;;
25731;SDS011;13585;50.864;4.406;2023-02-28T07:18:37;3.72;;;2.30;;
25731;SDS011;13585;50.864;4.406;2023-02-28T07:21:03;3.80;;;2.20;;
25731;SDS011;13585;50.864;4.406;2023-02-28T07:23:31;4.72;;;2.30;;
25731;SDS011;13585;50.864;4.406;2023-02-28T07:25:57;3.97;;;2.40;;
25731;SDS011;13585;50.864;4.406;2023-02-28T07:28:22;3.22;;;2.30;;
25731;SDS011;13585;50.864;4.406;2023-02-28T07:30:48;2.65;;;2.03;;
25731;SDS011;13585;50.864;4.406;2023-02-28T07:33:14;3.65;;;2.00;;
25731;SDS011;13585;50.864;4.406;2023-02-28T07:35:39;3.13;;;2.17;;
25731;SDS011;13585;50.864;4.406;2023-02-28T07:38:05;3.42;;;2.30;;
25731;SDS011;13585;50.864;4.406;2023-02-28T07:40:32;2.38;;;1.95;;
25731;SDS011;13585;50.864;4.406;2023-02-28T07:42:59;3.40;;;1.90;;
25731;SDS011;13585;50.864;4.406;2023-02-28T07:45:26;2.92;;;2.20;;
25731;SDS011;13585;50.864;4.406;2023-02-28T07:47:53;4.25;;;2.17;;
25731;SDS011;13585;50.864;4.406;2023-02-28T07:50:20;3.22;;;2.15;;
25731;SDS011;13585;50.864;4.406;2023-02-28T07:52:45;4.28;;;2.33;;
25731;SDS011;13585;50.864;4.406;2023-02-28T07:55:11;4.45;;;2.58;;
25731;SDS011;13585;50.864;4.406;2023-02-28T07:57:37;4.40;;;2.13;;
25731;SDS011;13585;50.864;4.406;2023-02-28T08:00:04;2.38;;;1.95;;
25731;SDS011;13585;50.864;4.406;2023-02-28T08:02:34;2.78;;;2.13;;
25731;SDS011;13585;50.864;4.406;2023-02-28T08:04:59;2.92;;;2.25;;
25731;SDS011;13585;50.864;4.406;2023-02-28T08:07:25;3.22;;;2.20;;
25731;SDS011;13585;50.864;4.406;2023-02-28T08:09:51;3.60;;;2.30;;
25731;SDS011;13585;50.864;4.406;2023-02-28T08:12:17;2.78;;;2.20;;
25731;SDS011;13585;50.864;4.406;2023-02-28T08:14:42;2.40;;;1.80;;
25731;SDS011;13585;50.864;4.406;2023-02-28T08:17:08;2.63;;;2.13;;
25731;SDS011;13585;50.864;4.406;2023-02-28T08:19:35;3.83;;;2.00;;
25731;SDS011;13585;50.864;4.406;2023-02-28T08:22:00;3.58;;;2.42;;
25731;SDS011;13585;50.864;4.406;2023-02-28T08:24:26;2.90;;;1.95;;
25731;SDS011;13585;50.864;4.406;2023-02-28T08:26:52;11.70;;;2.33;;
25731;SDS011;13585;50.864;4.406;2023-02-28T08:29:18;2.78;;;1.90;;
25731;SDS011;13585;50.864;4.406;2023-02-28T08:31:43;4.18;;;1.80;;
25731;SDS011;13585;50.864;4.406;2023-02-28T08:34:09;3.28;;;2.08;;
25731;SDS011;13585;50.864;4.406;2023-02-28T08:36:37;3.30;;;2.00;;
25731;SDS011;13585;50.864;4.406;2023-02-28T08:39:03;2.63;;;1.98;;
25731;SDS011;13585;50.864;4.406;2023-02-28T08:41:30;3.55;;;2.13;;
25731;SDS011;13585;50.864;4.406;2023-02-28T08:43:55;2.63;;;1.92;;
25731;SDS011;13585;50.864;4.406;2023-02-28T08:46:22;4.30;;;2.00;;
25731;SDS011;13585;50.864;4.406;2023-02-28T08:48:51;3.13;;;1.90;;
25731;SDS011;13585;50.864;4.406;2023-02-28T08:51:20;3.80;;;2.13;;
25731;SDS011;13585;50.864;4.406;2023-02-28T08:53:51;5.05;;;1.95;;
25731;SDS011;13585;50.864;4.406;2023-02-28T08:56:17;3.47;;;2.00;;
25731;SDS011;13585;50.864;4.406;2023-02-28T08:58:46;2.20;;;1.90;;
25731;SDS011;13585;50.864;4.406;2023-02-28T09:01:21;2.63;;;2.00;;
25731;SDS011;13585;50.864;4.406;2023-02-28T09:03:51;2.50;;;1.60;;
25731;SDS011;13585;50.864;4.406;2023-02-28T09:06:18;3.15;;;1.80;;
25731;SDS011;13585;50.864;4.406;2023-02-28T09:08:45;2.45;;;1.70;;
25731;SDS011;13585;50.864;4.406;2023-02-28T09:11:10;3.67;;;1.95;;
25731;SDS011;13585;50.864;4.406;2023-02-28T09:13:37;5.65;;;2.13;;
25731;SDS011;13585;50.864;4.406;2023-02-28T09:16:04;3.13;;;2.20;;
25731;SDS011;13585;50.864;4.406;2023-02-28T09:18:33;3.08;;;2.03;;
25731;SDS011;13585;50.864;4.406;2023-02-28T09:21:02;1.77;;;1.63;;
25731;SDS011;13585;50.864;4.406;2023-02-28T09:23:32;2.70;;;1.83;;
25731;SDS011;13585;50.864;4.406;2023-02-28T09:25:58;3.40;;;1.80;;
25731;SDS011;13585;50.864;4.406;2023-02-28T09:28:23;2.60;;;1.95;;
25731;SDS011;13585;50.864;4.406;2023-02-28T09:30:50;6.25;;;2.47;;
25731;SDS011;13585;50.864;4.406;2023-02-28T09:33:17;2.63;;;1.70;;
25731;SDS011;13585;50.864;4.406;2023-02-28T09:35:46;3.75;;;1.95;;
25731;SDS011;13585;50.864;4.406;2023-02-28T09:38:15;2.08;;;1.80;;
25731;SDS011;13585;50.864;4.406;2023-02-28T09:40:49;2.88;;;1.80;;
25731;SDS011;13585;50.864;4.406;2023-02-28T09:43:17;2.95;;;1.70;;
25731;SDS011;13585;50.864;4.406;2023-02-28T09:46:00;3.35;;;1.65;;
25731;SDS011;13585;50.864;4.406;2023-02-28T09:48:40;3.58;;;2.13;;
25731;SDS011;13585;50.864;4.406;2023-02-28T09:51:15;3.35;;;2.20;;
25731;SDS011;13585;50.864;4.406;2023-02-28T09:53:58;3.25;;;2.10;;
25731;SDS011;13585;50.864;4.406;2023-02-28T09:56:25;2.33;;;1.90;;
25731;SDS011;13585;50.864;4.406;2023-02-28T10:07:50;3.72;;;1.75;;
25731;SDS011;13585;50.864;4.406;2023-02-28T10:13:02;2.70;;;1.75;;
25731;SDS011;13585;50.864;4.406;2023-02-28T10:15:33;2.30;;;1.70;;
25731;SDS011;13585;50.864;4.406;2023-02-28T10:18:02;3.97;;;1.90;;
25731;SDS011;13585;50.864;4.406;2023-02-28T10:20:31;3.28;;;1.98;;
25731;SDS011;13585;50.864;4.406;2023-02-28T10:25:54;2.55;;;1.90;;
25731;SDS011;13585;50.864;4.406;2023-02-28T10:28:24;2.53;;;1.70;;
25731;SDS011;13585;50.864;4.406;2023-02-28T10:30:51;2.83;;;1.80;;
25731;SDS011;13585;50.864;4.406;2023-02-28T10:35:47;3.13;;;1.80;;
25731;SDS011;13585;50.864;4.406;2023-02-28T10:38:17;3.53;;;1.83;;
25731;SDS011;13585;50.864;4.406;2023-02-28T10:40:48;2.20;;;1.73;;
25731;SDS011;13585;50.864;4.406;2023-02-28T10:45:51;2.53;;;1.58;;
25731;SDS011;13585;50.864;4.406;2023-02-28T10:48:33;2.17;;;1.60;;
25731;SDS011;13585;50.864;4.406;2023-02-28T10:51:02;1.70;;;1.40;;
25731;SDS011;13585;50.864;4.406;2023-02-28T10:53:31;1.75;;;1.63;;
25731;SDS011;13585;50.864;4.406;2023-02-28T10:58:40;3.90;;;1.80;;
25731;SDS011;13585;50.864;4.406;2023-02-28T11:01:35;2.10;;;1.33;;
25731;SDS011;13585;50.864;4.406;2023-02-28T11:04:05;2.47;;;1.52;;
25731;SDS011;13585;50.864;4.406;2023-02-28T11:06:42;2.55;;;1.60;;
25731;SDS011;13585;50.864;4.406;2023-02-28T11:09:23;2.08;;;1.60;;
25731;SDS011;13585;50.864;4.406;2023-02-28T11:11:57;1.70;;;1.35;;
25731;SDS011;13585;50.864;4.406;2023-02-28T11:14:24;2.25;;;1.50;;
25731;SDS011;13585;50.864;4.406;2023-02-28T11:16:52;2.15;;;1.58;;
25731;SDS011;13585;50.864;4.406;2023-02-28T11:19:25;2.05;;;1.48;;
25731;SDS011;13585;50.864;4.406;2023-02-28T11:22:00;2.53;;;1.50;;
25731;SDS011;13585;50.864;4.406;2023-02-28T11:24:30;6.70;;;1.90;;
25731;SDS011;13585;50.864;4.406;2023-02-28T11:27:24;1.73;;;1.42;;
25731;SDS011;13585;50.864;4.406;2023-02-28T11:29:51;5.05;;;2.20;;
25731;SDS011;13585;50.864;4.406;2023-02-28T11:32:20;7.72;;;3.20;;
25731;SDS011;13585;50.864;4.406;2023-02-28T11:34:47;13.48;;;6.75;;
25731;SDS011;13585;50.864;4.406;2023-02-28T11:37:26;65.30;;;25.70;;
25731;SDS011;13585;50.864;4.406;2023-02-28T11:39:53;61.88;;;27.20;;
25731;SDS011;13585;50.864;4.406;2023-02-28T11:45:30;58.45;;;27.08;;
25731;SDS011;13585;50.864;4.406;2023-02-28T11:48:16;63.42;;;25.67;;
25731;SDS011;13585;50.864;4.406;2023-02-28T11:50:52;55.20;;;24.90;;
25731;SDS011;13585;50.864;4.406;2023-02-28T11:56:15;45.72;;;22.77;;
25731;SDS011;13585;50.864;4.406;2023-02-28T12:01:53;47.57;;;21.93;;
25731;SDS011;13585;50.864;4.406;2023-02-28T12:04:35;50.45;;;21.92;;
25731;SDS011;13585;50.864;4.406;2023-02-28T12:12:38;38.85;;;19.27;;
25731;SDS011;13585;50.864;4.406;2023-02-28T12:21:56;34.92;;;16.83;;
25731;SDS011;13585;50.864;4.406;2023-02-28T12:24:49;32.47;;;15.30;;
25731;SDS011;13585;50.864;4.406;2023-02-28T12:27:33;29.75;;;15.43;;
25731;SDS011;13585;50.864;4.406;2023-02-28T12:32:57;30.52;;;14.63;;
25731;SDS011;13585;50.864;4.406;2023-02-28T12:35:37;28.38;;;13.82;;
25731;SDS011;13585;50.864;4.406;2023-02-28T12:38:10;28.33;;;13.65;;
25731;SDS011;13585;50.864;4.406;2023-02-28T12:40:45;25.25;;;11.88;;
25731;SDS011;13585;50.864;4.406;2023-02-28T12:43:17;27.40;;;12.57;;
25731;SDS011;13585;50.864;4.406;2023-02-28T12:46:05;24.48;;;12.07;;
25731;SDS011;13585;50.864;4.406;2023-02-28T12:48:40;23.67;;;11.27;;
25731;SDS011;13585;50.864;4.406;2023-02-28T12:51:09;26.58;;;11.82;;
25731;SDS011;13585;50.864;4.406;2023-02-28T12:53:54;22.75;;;11.23;;
25731;SDS011;13585;50.864;4.406;2023-02-28T12:56:28;21.35;;;10.82;;
25731;SDS011;13585;50.864;4.406;2023-02-28T12:59:13;19.67;;;10.48;;
25731;SDS011;13585;50.864;4.406;2023-02-28T13:01:51;17.58;;;9.93;;
25731;SDS011;13585;50.864;4.406;2023-02-28T13:05:01;19.45;;;9.57;;
25731;SDS011;13585;50.864;4.406;2023-02-28T13:10:21;21.42;;;8.77;;
25731;SDS011;13585;50.864;4.406;2023-02-28T13:12:50;17.15;;;7.95;;
25731;SDS011;13585;50.864;4.406;2023-02-28T13:15:25;16.52;;;8.68;;
25731;SDS011;13585;50.864;4.406;2023-02-28T13:17:54;16.55;;;8.45;;
25731;SDS011;13585;50.864;4.406;2023-02-28T13:20:27;15.95;;;8.15;;
25731;SDS011;13585;50.864;4.406;2023-02-28T13:23:00;19.45;;;8.25;;
25731;SDS011;13585;50.864;4.406;2023-02-28T13:25:52;15.45;;;8.18;;
25731;SDS011;13585;50.864;4.406;2023-02-28T13:31:26;14.43;;;7.47;;
25731;SDS011;13585;50.864;4.406;2023-02-28T13:34:05;15.75;;;6.78;;
25731;SDS011;13585;50.864;4.406;2023-02-28T13:42:14;14.82;;;7.30;;
25731;SDS011;13585;50.864;4.406;2023-02-28T13:47:52;13.18;;;6.45;;
25731;SDS011;13585;50.864;4.406;2023-02-28T13:53:30;13.55;;;6.55;;
25731;SDS011;13585;50.864;4.406;2023-02-28T14:01:48;14.52;;;6.32;;
25731;SDS011;13585;50.864;4.406;2023-02-28T14:04:49;12.07;;;5.75;;
25731;SDS011;13585;50.864;4.406;2023-02-28T14:11:05;8.38;;;5.53;;
25731;SDS011;13585;50.864;4.406;2023-02-28T14:16:13;11.38;;;5.53;;
25731;SDS011;13585;50.864;4.406;2023-02-28T14:18:49;10.15;;;5.55;;
25731;SDS011;13585;50.864;4.406;2023-02-28T14:24:02;9.40;;;5.22;;
25731;SDS011;13585;50.864;4.406;2023-02-28T14:37:38;9.77;;;5.15;;
25731;SDS011;13585;50.864;4.406;2023-02-28T14:40:16;8.90;;;5.45;;
25731;SDS011;13585;50.864;4.406;2023-02-28T14:42:59;9.50;;;5.25;;
25731;SDS011;13585;50.864;4.406;2023-02-28T14:45:27;8.57;;;4.88;;
25731;SDS011;13585;50.864;4.406;2023-02-28T14:47:55;8.85;;;4.82;;
25731;SDS011;13585;50.864;4.406;2023-02-28T14:50:24;12.73;;;5.32;;
25731;SDS011;13585;50.864;4.406;2023-02-28T14:52:56;9.23;;;4.63;;
25731;SDS011;13585;50.864;4.406;2023-02-28T14:55:31;8.68;;;4.60;;
25731;SDS011;13585;50.864;4.406;2023-02-28T14:58:00;9.13;;;4.88;;
25731;SDS011;13585;50.864;4.406;2023-02-28T15:00:29;8.13;;;4.38;;
25731;SDS011;13585;50.864;4.406;2023-02-28T15:02:59;6.40;;;4.25;;
25731;SDS011;13585;50.864;4.406;2023-02-28T15:05:41;5.85;;;3.97;;
25731;SDS011;13585;50.864;4.406;2023-02-28T15:08:16;7.85;;;4.00;;
25731;SDS011;13585;50.864;4.406;2023-02-28T15:10:49;6.50;;;4.25;;
25731;SDS011;13585;50.864;4.406;2023-02-28T15:13:16;8.38;;;4.38;;
25731;SDS011;13585;50.864;4.406;2023-02-28T15:15:44;7.63;;;3.97;;
25731;SDS011;13585;50.864;4.406;2023-02-28T15:21:07;7.72;;;3.53;;
25731;SDS011;13585;50.864;4.406;2023-02-28T15:23:37;6.78;;;3.58;;
25731;SDS011;13585;50.864;4.406;2023-02-28T15:26:05;7.18;;;3.63;;
25731;SDS011;13585;50.864;4.406;2023-02-28T15:28:31;7.47;;;4.07;;
25731;SDS011;13585;50.864;4.406;2023-02-28T15:30:59;5.25;;;3.50;;
25731;SDS011;13585;50.864;4.406;2023-02-28T15:33:28;5.85;;;3.63;;
25731;SDS011;13585;50.864;4.406;2023-02-28T15:38:54;5.50;;;3.53;;
25731;SDS011;13585;50.864;4.406;2023-02-28T15:41:29;5.70;;;3.15;;
25731;SDS011;13585;50.864;4.406;2023-02-28T15:46:41;5.70;;;3.38;;
25731;SDS011;13585;50.864;4.406;2023-02-28T15:49:17;6.78;;;3.63;;
25731;SDS011;13585;50.864;4.406;2023-02-28T15:51:45;6.30;;;3.60;;
25731;SDS011;13585;50.864;4.406;2023-02-28T15:54:14;5.80;;;3.50;;
25731;SDS011;13585;50.864;4.406;2023-02-28T15:56:46;5.93;;;3.40;;
25731;SDS011;13585;50.864;4.406;2023-02-28T15:59:26;6.00;;;3.40;;
25731;SDS011;13585;50.864;4.406;2023-02-28T16:02:15;4.82;;;2.95;;
25731;SDS011;13585;50.864;4.406;2023-02-28T16:08:00;5.10;;;2.85;;
25731;SDS011;13585;50.864;4.406;2023-02-28T16:10:35;4.90;;;2.83;;
25731;SDS011;13585;50.864;4.406;2023-02-28T16:13:02;5.88;;;2.85;;
25731;SDS011;13585;50.864;4.406;2023-02-28T16:15:29;5.68;;;3.13;;
25731;SDS011;13585;50.864;4.406;2023-02-28T16:18:00;4.22;;;2.63;;
25731;SDS011;13585;50.864;4.406;2023-02-28T16:20:26;4.63;;;2.78;;
25731;SDS011;13585;50.864;4.406;2023-02-28T16:22:57;4.55;;;2.67;;
25731;SDS011;13585;50.864;4.406;2023-02-28T16:25:36;4.78;;;2.72;;
25731;SDS011;13585;50.864;4.406;2023-02-28T16:28:11;4.88;;;2.60;;
25731;SDS011;13585;50.864;4.406;2023-02-28T16:30:43;4.15;;;2.90;;
25731;SDS011;13585;50.864;4.406;2023-02-28T16:33:09;4.35;;;2.50;;
25731;SDS011;13585;50.864;4.406;2023-02-28T16:35:34;4.53;;;2.60;;
25731;SDS011;13585;50.864;4.406;2023-02-28T16:38:00;7.40;;;2.80;;
25731;SDS011;13585;50.864;4.406;2023-02-28T16:40:26;5.75;;;2.55;;
25731;SDS011;13585;50.864;4.406;2023-02-28T16:42:55;4.68;;;2.97;;
25731;SDS011;13585;50.864;4.406;2023-02-28T16:45:25;4.25;;;2.20;;
25731;SDS011;13585;50.864;4.406;2023-02-28T16:47:52;3.38;;;2.47;;
25731;SDS011;13585;50.864;4.406;2023-02-28T16:52:54;4.07;;;2.20;;
25731;SDS011;13585;50.864;4.406;2023-02-28T16:55:21;3.25;;;2.45;;
25731;SDS011;13585;50.864;4.406;2023-02-28T16:57:52;4.55;;;2.55;;
25731;SDS011;13585;50.864;4.406;2023-02-28T17:00:19;3.90;;;2.10;;
25731;SDS011;13585;50.864;4.406;2023-02-28T17:02:45;3.67;;;2.40;;
25731;SDS011;13585;50.864;4.406;2023-02-28T17:05:11;3.92;;;2.40;;
25731;SDS011;13585;50.864;4.406;2023-02-28T17:07:38;3.08;;;2.28;;
25731;SDS011;13585;50.864;4.406;2023-02-28T17:12:40;2.72;;;2.00;;
25731;SDS011;13585;50.864;4.406;2023-02-28T17:15:06;4.70;;;2.50;;
25731;SDS011;13585;50.864;4.406;2023-02-28T17:17:32;6.78;;;2.28;;
25731;SDS011;13585;50.864;4.406;2023-02-28T17:19:58;3.88;;;2.17;;
25731;SDS011;13585;50.864;4.406;2023-02-28T17:22:26;3.03;;;2.13;;
25731;SDS011;13585;50.864;4.406;2023-02-28T17:24:52;3.15;;;2.08;;
25731;SDS011;13585;50.864;4.406;2023-02-28T17:27:20;3.28;;;2.28;;